createdAt,value
2023-03-04T00:00:56.475Z,370.19
2023-03-04T00:04:03.466Z,393.39
2023-03-04T00:07:09.449Z,432.06
2023-03-04T00:10:16.438Z,447.51
2023-03-04T00:13:22.501Z,459.67
2023-03-04T00:16:31.995Z,462.90
2023-03-04T00:19:38.026Z,453.48
2023-03-04T00:22:44.752Z,452.63
2023-03-04T00:25:50.692Z,466.08
2023-03-04T00:28:57.512Z,456.19
2023-03-04T00:32:08.267Z,466.64
2023-03-04T00:35:15.082Z,485.22
2023-03-04T00:38:21.049Z,506.36
2023-03-04T00:41:27.980Z,504.37
2023-03-04T00:44:33.959Z,507.95
2023-03-04T00:47:43.459Z,512.33
2023-03-04T00:50:49.461Z,506.34
2023-03-04T00:53:56.206Z,487.47
2023-03-04T00:57:02.269Z,493.29
2023-03-04T01:00:11.467Z,496.40
2023-03-04T01:03:20.051Z,495.55
2023-03-04T01:06:27.128Z,499.35
2023-03-04T01:09:33.340Z,489.05
2023-03-04T01:12:40.402Z,471.53
2023-03-04T01:15:46.683Z,475.05
2023-03-04T01:18:56.234Z,478.73
2023-03-04T01:22:02.177Z,478.51
2023-03-04T01:25:11.201Z,478.07
2023-03-04T01:28:17.670Z,476.15
2023-03-04T01:31:24.529Z,477.82
2023-03-04T01:34:33.770Z,457.35
2023-03-04T01:37:40.953Z,454.10
2023-03-04T01:40:48.764Z,457.57
2023-03-04T01:43:57.352Z,460.53
2023-03-04T01:47:03.627Z,472.52
2023-03-04T01:50:25.138Z,459.42
2023-03-04T01:53:39.796Z,430.10
2023-03-04T01:56:52.219Z,434.50
2023-03-04T02:00:26.715Z,435.12
2023-03-04T02:03:34.120Z,427.12
2023-03-04T02:06:46.021Z,433.55
2023-03-04T02:09:56.632Z,424.73
2023-03-04T02:13:04.548Z,421.49
2023-03-04T02:16:11.621Z,423.62
2023-03-04T02:19:38.753Z,423.68
2023-03-04T02:23:11.070Z,426.49
2023-03-04T02:26:23.205Z,433.72
2023-03-04T02:29:32.570Z,415.78
2023-03-04T02:32:38.937Z,420.79
2023-03-04T02:35:46.084Z,416.27
2023-03-04T02:38:54.558Z,421.56
2023-03-04T02:42:06.316Z,436.79
2023-03-04T02:45:40.558Z,409.03
2023-03-04T02:48:47.924Z,389.68
2023-03-04T02:52:01.468Z,388.89
2023-03-04T02:55:09.558Z,391.37
2023-03-04T02:58:19.075Z,401.87
2023-03-04T03:01:30.803Z,409.53
2023-03-04T03:04:41.538Z,416.36
2023-03-04T03:07:51.262Z,401.28
2023-03-04T03:10:58.185Z,388.97
2023-03-04T03:14:08.666Z,379.81
2023-03-04T03:17:15.456Z,382.39
2023-03-04T03:20:28.893Z,362.89
2023-03-04T03:23:35.624Z,369.29
2023-03-04T03:26:42.489Z,346.96
2023-03-04T03:29:51.998Z,332.77
2023-03-04T03:33:09.879Z,325.11
2023-03-04T03:36:25.233Z,326.52
2023-03-04T03:39:31.258Z,316.20
2023-03-04T03:42:38.064Z,324.60
2023-03-04T03:45:46.948Z,323.68
2023-03-04T03:48:53.739Z,313.02
2023-03-04T03:51:59.934Z,316.32
2023-03-04T03:55:10.959Z,314.19
2023-03-04T03:58:17.342Z,325.23
2023-03-04T04:01:26.742Z,335.43
2023-03-04T04:04:32.695Z,323.69
2023-03-04T04:07:41.973Z,339.53
2023-03-04T04:10:48.102Z,359.68
2023-03-04T04:13:54.823Z,335.10
2023-03-04T04:17:04.049Z,332.51
2023-03-04T04:20:13.703Z,346.94
2023-03-04T04:23:19.842Z,354.36
2023-03-04T04:26:29.128Z,346.38
2023-03-04T04:29:35.054Z,349.93
2023-03-04T04:32:44.377Z,345.90
2023-03-04T04:35:52.513Z,360.37
2023-03-04T04:38:59.267Z,375.61
2023-03-04T04:42:05.546Z,354.44
2023-03-04T04:45:14.085Z,327.37
2023-03-04T04:48:22.671Z,307.92
2023-03-04T04:51:29.810Z,303.24
2023-03-04T04:54:36.150Z,306.15
2023-03-04T04:57:42.950Z,330.50
2023-03-04T05:00:52.890Z,323.38
2023-03-04T05:04:02.279Z,329.43
2023-03-04T05:07:08.425Z,350.95
2023-03-04T05:10:16.017Z,354.78
2023-03-04T05:13:26.772Z,343.09
2023-03-04T05:16:34.248Z,343.61
2023-03-04T05:19:49.924Z,359.00
2023-03-04T05:22:59.482Z,368.26
2023-03-04T05:26:09.276Z,384.02
2023-03-04T05:29:18.004Z,347.70
2023-03-04T05:32:24.122Z,331.42
2023-03-04T05:35:38.567Z,330.67
2023-03-04T05:38:45.855Z,331.64
2023-03-04T05:41:52.514Z,346.71
2023-03-04T05:44:58.631Z,352.05
2023-03-04T05:48:13.461Z,349.42
2023-03-04T05:51:26.269Z,342.63
2023-03-04T05:54:35.025Z,323.31
2023-03-04T05:57:40.959Z,315.88
2023-03-04T06:00:50.700Z,304.11
2023-03-04T06:03:56.777Z,306.56
2023-03-04T06:07:09.850Z,303.25
2023-03-04T06:10:24.649Z,299.59
2023-03-04T06:13:31.664Z,295.60
2023-03-04T06:16:37.609Z,295.70
2023-03-04T06:19:44.773Z,292.24
2023-03-04T06:22:53.915Z,295.65
2023-03-04T06:26:04.003Z,306.82
2023-03-04T06:29:10.656Z,309.73
2023-03-04T06:32:17.609Z,312.28
2023-03-04T06:35:24.649Z,326.43
2023-03-04T06:38:34.394Z,322.10
2023-03-04T06:41:42.010Z,322.71
2023-03-04T06:44:54.903Z,330.35
2023-03-04T06:48:01.301Z,351.95
2023-03-04T06:51:19.915Z,347.88
2023-03-04T06:54:28.995Z,341.66
2023-03-04T06:57:35.696Z,342.99
2023-03-04T07:00:41.516Z,309.38
2023-03-04T07:03:49.921Z,316.32
2023-03-04T07:07:05.911Z,283.73
2023-03-04T07:10:27.420Z,264.31
2023-03-04T07:13:38.368Z,287.60
2023-03-04T07:16:45.326Z,314.57
2023-03-04T07:19:51.751Z,303.43
2023-03-04T07:22:58.527Z,262.83
2023-03-04T07:26:07.313Z,264.63
2023-03-04T07:29:14.050Z,263.03
2023-03-04T07:32:20.258Z,253.29
2023-03-04T07:35:26.933Z,249.10
2023-03-04T07:38:32.867Z,253.89
2023-03-04T07:41:43.306Z,248.74
2023-03-04T07:45:00.377Z,250.06
2023-03-04T07:48:30.936Z,253.42
2023-03-04T07:51:44.694Z,260.90
2023-03-04T07:54:51.489Z,265.51
2023-03-04T07:58:01.863Z,275.96
2023-03-04T08:01:13.604Z,266.56
2023-03-04T08:04:19.685Z,274.54
2023-03-04T08:07:28.957Z,291.31
2023-03-04T08:10:34.961Z,290.52
2023-03-04T08:13:45.106Z,280.75
2023-03-04T08:16:51.089Z,287.93
2023-03-04T08:19:57.910Z,306.16
2023-03-04T08:23:03.772Z,275.75
2023-03-04T08:26:13.968Z,277.30
2023-03-04T08:29:26.318Z,282.60
2023-03-04T08:32:33.501Z,299.06
2023-03-04T08:35:46.811Z,321.25
2023-03-04T08:38:53.720Z,354.74
2023-03-04T08:41:59.593Z,283.86
2023-03-04T08:45:16.948Z,280.62
2023-03-04T08:48:23.767Z,274.19
2023-03-04T08:51:35.936Z,247.17
2023-03-04T08:54:41.782Z,241.59
2023-03-04T08:57:48.551Z,242.19
2023-03-04T09:01:09.754Z,239.87
2023-03-04T09:04:16.646Z,236.90
2023-03-04T09:07:22.647Z,236.79
2023-03-04T09:10:30.180Z,238.17
2023-03-04T09:13:37.394Z,251.07
2023-03-04T09:16:46.648Z,242.38
2023-03-04T09:19:52.591Z,249.94
2023-03-04T09:23:02.563Z,236.47
2023-03-04T09:26:19.334Z,241.33
2023-03-04T09:29:26.554Z,305.64
2023-03-04T09:32:47.837Z,338.21
2023-03-04T09:35:59.228Z,309.14
2023-03-04T09:39:07.176Z,294.26
2023-03-04T09:42:29.125Z,270.61
2023-03-04T09:45:48.724Z,279.51
2023-03-04T09:49:00.186Z,251.94
2023-03-04T09:52:27.025Z,251.32
2023-03-04T09:55:40.742Z,253.24
2023-03-04T09:59:05.706Z,254.98
2023-03-04T10:02:38.096Z,266.99
2023-03-04T10:05:58.968Z,277.82
2023-03-04T10:09:16.691Z,330.39
2023-03-04T10:12:34.716Z,435.46
2023-03-04T10:15:46.504Z,409.10
2023-03-04T10:19:08.092Z,386.99
2023-03-04T10:22:39.453Z,431.37
2023-03-04T10:25:53.939Z,428.98
2023-03-04T10:29:03.179Z,423.33
2023-03-04T10:32:12.917Z,435.48
2023-03-04T10:35:39.415Z,443.49
2023-03-04T10:38:48.993Z,461.34
2023-03-04T10:42:03.795Z,484.42
2023-03-04T10:45:26.212Z,532.24
2023-03-04T10:48:35.467Z,530.87
2023-03-04T10:51:47.973Z,560.64
2023-03-04T10:55:01.657Z,564.63
2023-03-04T10:58:10.529Z,549.87
2023-03-04T11:01:26.713Z,525.50
2023-03-04T11:04:37.980Z,525.80
2023-03-04T11:07:55.563Z,514.19
2023-03-04T11:11:04.902Z,574.56
2023-03-04T11:14:26.277Z,561.56
2023-03-04T11:17:48.645Z,518.53
2023-03-04T11:21:01.181Z,446.89
2023-03-04T11:24:29.204Z,452.61
2023-03-04T11:27:54.406Z,468.56
2023-03-04T11:31:07.115Z,480.95
2023-03-04T11:34:35.062Z,435.49
2023-03-04T11:37:49.736Z,419.49
2023-03-04T11:41:04.753Z,462.32
2023-03-04T11:44:18.043Z,468.66
2023-03-04T11:47:48.161Z,413.11
2023-03-04T11:51:05.906Z,450.01
2023-03-04T11:54:32.961Z,492.65
2023-03-04T11:57:59.545Z,503.67
2023-03-04T12:01:16.159Z,553.90
2023-03-04T12:04:52.046Z,461.16
2023-03-04T12:08:38.118Z,490.07
2023-03-04T12:12:12.899Z,445.25
2023-03-04T12:15:32.013Z,475.51
2023-03-04T12:19:06.396Z,466.06
2023-03-04T12:22:34.366Z,402.18
2023-03-04T12:26:08.384Z,407.88
2023-03-04T12:29:38.684Z,357.28
2023-03-04T12:33:01.300Z,375.16
2023-03-04T12:36:37.630Z,422.92
2023-03-04T12:40:27.982Z,381.98
2023-03-04T12:43:50.693Z,374.96
2023-03-04T12:47:37.356Z,329.90
2023-03-04T12:51:07.151Z,353.97
2023-03-04T12:54:32.076Z,336.05
2023-03-04T12:57:41.239Z,339.73
2023-03-04T13:01:06.259Z,331.31
2023-03-04T13:04:26.913Z,331.32
2023-03-04T13:07:53.141Z,328.38
2023-03-04T13:11:47.585Z,333.64
2023-03-04T13:15:35.091Z,335.10
2023-03-04T13:18:42.284Z,345.80
2023-03-04T13:21:55.220Z,349.10
2023-03-04T13:25:26.267Z,342.46
2023-03-04T13:28:38.031Z,346.29
2023-03-04T13:32:04.481Z,334.90
2023-03-04T13:35:50.738Z,351.53
2023-03-04T13:39:08.907Z,325.50
2023-03-04T13:42:44.417Z,342.22
2023-03-04T13:45:53.943Z,341.44
2023-03-04T13:49:18.749Z,332.28
2023-03-04T13:52:46.760Z,326.44
2023-03-04T13:56:26.407Z,330.72
2023-03-04T13:59:48.945Z,344.23
2023-03-04T14:02:57.458Z,334.63
2023-03-04T14:06:22.921Z,349.75
2023-03-04T14:09:32.146Z,367.19
2023-03-04T14:12:44.558Z,352.64
2023-03-04T14:16:00.054Z,347.55
2023-03-04T14:19:19.022Z,355.25
2023-03-04T14:22:31.145Z,359.70
2023-03-04T14:25:39.297Z,352.56
2023-03-04T14:28:51.864Z,352.50
2023-03-04T14:32:01.585Z,326.62
2023-03-04T14:35:23.119Z,339.83
2023-03-04T14:38:36.392Z,361.75
2023-03-04T14:41:46.233Z,354.83
2023-03-04T14:44:56.211Z,354.21
2023-03-04T14:48:09.319Z,357.68
2023-03-04T14:51:41.767Z,374.09
2023-03-04T14:55:03.569Z,361.94
2023-03-04T14:58:27.011Z,370.67
2023-03-04T15:01:37.752Z,369.86
2023-03-04T15:04:44.695Z,367.19
2023-03-04T15:08:00.429Z,406.41
2023-03-04T15:11:11.313Z,401.09
2023-03-04T15:14:45.679Z,394.34
2023-03-04T15:18:01.621Z,392.53
2023-03-04T15:21:36.985Z,407.30
2023-03-04T15:24:46.302Z,439.62
2023-03-04T15:27:54.352Z,424.65
2023-03-04T15:31:01.228Z,456.26
2023-03-04T15:34:16.159Z,519.55
2023-03-04T15:37:29.666Z,481.55
2023-03-04T15:40:43.554Z,543.99
2023-03-04T15:43:50.518Z,522.24
2023-03-04T15:46:56.553Z,476.25
2023-03-04T15:50:03.851Z,462.94
2023-03-04T15:53:18.386Z,521.18
2023-03-04T15:56:31.298Z,533.55
2023-03-04T15:59:37.402Z,517.30
2023-03-04T16:02:45.037Z,438.56
2023-03-04T16:05:54.836Z,406.22
2023-03-04T16:09:07.096Z,429.70
2023-03-04T16:12:17.867Z,448.77
2023-03-04T16:15:29.055Z,441.24
2023-03-04T16:18:35.108Z,438.62
2023-03-04T16:21:42.165Z,436.72
2023-03-04T16:24:48.401Z,504.20
2023-03-04T16:28:02.865Z,483.77
2023-03-04T16:31:09.433Z,454.53
2023-03-04T16:34:18.713Z,423.17
2023-03-04T16:37:25.046Z,456.17
2023-03-04T16:40:34.588Z,532.92
2023-03-04T16:43:44.108Z,540.21
2023-03-04T16:46:50.912Z,426.12
2023-03-04T16:49:57.875Z,452.04
2023-03-04T16:53:04.925Z,427.08
2023-03-04T16:56:18.588Z,428.64
2023-03-04T16:59:31.593Z,416.71
2023-03-04T17:02:37.656Z,468.36
2023-03-04T17:05:44.578Z,509.26
2023-03-04T17:08:51.210Z,439.89
2023-03-04T17:11:59.988Z,401.62
2023-03-04T17:15:10.917Z,414.91
2023-03-04T17:18:17.842Z,493.27
2023-03-04T17:21:28.002Z,438.75
2023-03-04T17:24:35.450Z,447.19
2023-03-04T17:27:41.941Z,434.27
2023-03-04T17:30:51.497Z,461.01
2023-03-04T17:33:57.573Z,487.97
2023-03-04T17:37:04.496Z,571.86
2023-03-04T17:40:15.193Z,494.21
2023-03-04T17:43:22.227Z,458.87
2023-03-04T17:46:33.447Z,446.25
2023-03-04T17:49:44.787Z,446.45
2023-03-04T17:52:50.809Z,423.58
2023-03-04T17:56:02.215Z,431.14
2023-03-04T17:59:15.589Z,430.51
2023-03-04T18:02:25.298Z,436.90
2023-03-04T18:05:31.330Z,412.18
2023-03-04T18:08:38.255Z,406.29
2023-03-04T18:11:45.512Z,441.46
2023-03-04T18:14:52.384Z,450.00
2023-03-04T18:18:01.071Z,469.59
2023-03-04T18:21:08.951Z,477.45
2023-03-04T18:24:18.039Z,461.13
2023-03-04T18:27:25.099Z,482.86
2023-03-04T18:30:31.236Z,520.95
2023-03-04T18:33:41.960Z,476.85
2023-03-04T18:36:47.917Z,468.23
2023-03-04T18:39:54.777Z,493.67
2023-03-04T18:43:01.021Z,492.95
2023-03-04T18:46:14.897Z,513.87
2023-03-04T18:49:25.175Z,522.52
2023-03-04T18:52:32.130Z,524.35
2023-03-04T18:55:38.153Z,494.89
2023-03-04T18:58:50.624Z,481.21
2023-03-04T19:01:58.765Z,497.30
2023-03-04T19:05:15.824Z,541.34
2023-03-04T19:08:21.936Z,510.55
2023-03-04T19:11:30.152Z,468.24
2023-03-04T19:14:36.804Z,377.38
2023-03-04T19:17:45.545Z,359.18
2023-03-04T19:20:54.358Z,303.94
2023-03-04T19:24:01.615Z,295.70
2023-03-04T19:27:08.321Z,250.34
2023-03-04T19:30:18.964Z,247.14
2023-03-04T19:33:26.801Z,246.43
2023-03-04T19:36:38.701Z,236.77
2023-03-04T19:39:46.180Z,218.13
2023-03-04T19:42:57.069Z,208.60
2023-03-04T19:46:03.220Z,207.26
2023-03-04T19:49:10.574Z,207.40
2023-03-04T19:52:19.329Z,198.28
2023-03-04T19:55:26.377Z,181.47
2023-03-04T19:58:32.440Z,175.90
2023-03-04T20:01:40.972Z,188.63
2023-03-04T20:04:47.202Z,172.00
2023-03-04T20:07:57.024Z,181.10
2023-03-04T20:11:03.189Z,186.36
2023-03-04T20:14:10.301Z,174.48
2023-03-04T20:17:22.505Z,175.59
2023-03-04T20:20:33.232Z,170.34
2023-03-04T20:23:41.993Z,182.17
2023-03-04T20:26:49.381Z,180.76
2023-03-04T20:30:04.255Z,170.10
2023-03-04T20:33:25.699Z,158.23
2023-03-04T20:36:34.769Z,156.30
2023-03-04T20:39:44.569Z,151.30
2023-03-04T20:42:50.971Z,147.39
2023-03-04T20:45:58.085Z,148.81
2023-03-04T20:49:08.044Z,152.77
2023-03-04T20:52:34.135Z,152.32
2023-03-04T20:55:54.100Z,150.50
2023-03-04T20:59:15.788Z,143.51
2023-03-04T21:02:23.720Z,143.99
2023-03-04T21:05:30.599Z,139.80
2023-03-04T21:08:36.622Z,139.86
2023-03-04T21:11:48.401Z,135.45
2023-03-04T21:14:54.398Z,143.10
2023-03-04T21:18:01.169Z,146.37
2023-03-04T21:21:14.419Z,166.54
2023-03-04T21:24:29.479Z,177.45
2023-03-04T21:27:42.791Z,179.73
2023-03-04T21:30:49.826Z,175.69
2023-03-04T21:34:00.441Z,175.83
2023-03-04T21:37:09.203Z,179.62
2023-03-04T21:40:21.164Z,172.86
2023-03-04T21:43:36.724Z,185.31
2023-03-04T21:46:49.243Z,192.71
2023-03-04T21:50:03.759Z,171.03
2023-03-04T21:53:09.826Z,156.89
2023-03-04T21:56:17.503Z,162.14
2023-03-04T21:59:35.548Z,187.81
2023-03-04T22:02:42.776Z,136.49
2023-03-04T22:05:51.638Z,71.89
2023-03-04T22:08:59.950Z,63.41
2023-03-04T22:12:06.207Z,69.46
2023-03-04T22:15:15.879Z,72.39
2023-03-04T22:18:21.864Z,90.67
2023-03-04T22:21:30.616Z,93.96
2023-03-04T22:24:36.710Z,126.18
2023-03-04T22:27:43.696Z,126.24
2023-03-04T22:30:52.399Z,124.16
2023-03-04T22:34:00.270Z,132.64
2023-03-04T22:37:09.514Z,153.18
2023-03-04T22:40:18.104Z,211.95
2023-03-04T22:43:24.090Z,195.79
2023-03-04T22:46:43.915Z,165.09
2023-03-04T22:49:49.953Z,139.17
2023-03-04T22:52:59.776Z,138.58
2023-03-04T22:56:11.220Z,132.22
2023-03-04T22:59:18.044Z,124.68
2023-03-04T23:02:27.128Z,117.67
2023-03-04T23:05:36.410Z,107.21
2023-03-04T23:08:46.489Z,107.85
2023-03-04T23:11:58.832Z,105.18
2023-03-04T23:15:08.523Z,111.89
2023-03-04T23:18:18.224Z,130.84
2023-03-04T23:21:33.982Z,158.52
2023-03-04T23:24:42.583Z,207.36
2023-03-04T23:27:51.220Z,235.81
2023-03-04T23:30:58.315Z,233.12
2023-03-04T23:34:08.149Z,267.59
2023-03-04T23:37:14.946Z,263.25
2023-03-04T23:40:21.400Z,254.30
2023-03-04T23:43:30.202Z,250.11
2023-03-04T23:46:37.922Z,263.93
2023-03-04T23:49:47.423Z,259.89
2023-03-04T23:52:53.543Z,291.51
2023-03-04T23:56:00.330Z,260.78
2023-03-04T23:59:07.973Z,205.06
